createdAt,value
2023-01-11T00:01:01.013Z,3.58
2023-01-11T00:03:30.190Z,3.26
2023-01-11T00:05:58.861Z,2.92
2023-01-11T00:08:28.337Z,3.28
2023-01-11T00:10:56.331Z,3.38
2023-01-11T00:13:24.272Z,3.48
2023-01-11T00:15:52.158Z,3.37
2023-01-11T00:18:20.699Z,3.16
2023-01-11T00:20:48.627Z,3.38
2023-01-11T00:23:16.618Z,3.40
2023-01-11T00:25:44.527Z,3.37
2023-01-11T00:28:12.439Z,3.26
2023-01-11T00:30:40.398Z,2.97
2023-01-11T00:33:11.396Z,3.16
2023-01-11T00:35:39.332Z,3.25
2023-01-11T00:38:07.686Z,3.25
2023-01-11T00:40:35.460Z,3.17
2023-01-11T00:43:22.648Z,2.92
2023-01-11T00:46:19.624Z,3.26
2023-01-11T00:48:47.574Z,3.19
2023-01-11T00:51:15.504Z,3.21
2023-01-11T00:53:43.576Z,3.21
2023-01-11T00:56:11.569Z,3.23
2023-01-11T00:58:39.427Z,3.19
2023-01-11T01:01:08.479Z,3.06
2023-01-11T01:03:36.648Z,2.98
2023-01-11T01:06:04.609Z,2.94
2023-01-11T01:08:32.796Z,3.01
2023-01-11T01:11:00.577Z,2.95
2023-01-11T01:13:46.840Z,2.98
2023-01-11T01:16:15.015Z,3.00
2023-01-11T01:18:42.898Z,3.06
2023-01-11T01:21:10.921Z,2.90
2023-01-11T01:23:38.840Z,2.90
2023-01-11T01:26:07.458Z,2.90
2023-01-11T01:28:35.384Z,2.87
2023-01-11T01:31:03.384Z,2.84
2023-01-11T01:33:31.452Z,2.89
2023-01-11T01:36:01.698Z,2.70
2023-01-11T01:38:30.313Z,2.62
2023-01-11T01:40:58.216Z,2.63
2023-01-11T01:44:06.513Z,2.50
2023-01-11T01:46:34.596Z,2.60
2023-01-11T01:49:12.973Z,2.64
2023-01-11T01:51:49.735Z,2.42
2023-01-11T01:54:27.529Z,2.59
2023-01-11T01:57:13.922Z,2.58
2023-01-11T01:59:42.339Z,2.55
2023-01-11T02:02:12.042Z,2.46
2023-01-11T02:04:44.385Z,2.20
2023-01-11T02:07:19.760Z,2.12
2023-01-11T02:10:11.109Z,2.01
2023-01-11T02:12:45.051Z,1.99
2023-01-11T02:15:14.325Z,1.96
2023-01-11T02:17:42.203Z,2.12
2023-01-11T02:20:31.497Z,2.12
2023-01-11T02:23:36.750Z,2.16
2023-01-11T02:26:39.358Z,2.17
2023-01-11T02:29:26.989Z,2.19
2023-01-11T02:32:06.494Z,2.18
2023-01-11T02:34:38.102Z,2.17
2023-01-11T02:37:31.631Z,2.15
2023-01-11T02:40:17.234Z,1.99
2023-01-11T02:43:13.545Z,1.57
2023-01-11T02:45:59.875Z,1.72
2023-01-11T02:48:59.343Z,1.75
2023-01-11T02:51:43.593Z,1.89
2023-01-11T02:54:13.953Z,1.94
2023-01-11T02:59:38.235Z,1.95
2023-01-11T03:02:06.497Z,2.07
2023-01-11T03:04:38.052Z,2.13
2023-01-11T03:07:15.875Z,2.17
2023-01-11T03:09:46.666Z,2.28
2023-01-11T03:12:52.552Z,2.23
2023-01-11T03:15:40.018Z,2.27
2023-01-11T03:18:35.045Z,2.29
2023-01-11T03:21:09.184Z,2.23
2023-01-11T03:23:49.087Z,2.28
2023-01-11T03:26:16.858Z,2.26
2023-01-11T03:28:44.733Z,2.30
2023-01-11T03:31:21.900Z,2.29
2023-01-11T03:34:29.826Z,2.43
2023-01-11T03:37:03.753Z,2.47
2023-01-11T03:40:04.155Z,2.56
2023-01-11T03:42:35.525Z,2.57
2023-01-11T03:45:04.540Z,2.49
2023-01-11T03:47:34.326Z,2.56
2023-01-11T03:50:11.338Z,2.55
2023-01-11T03:52:42.857Z,2.49
2023-01-11T03:55:15.387Z,2.61
2023-01-11T03:57:51.560Z,2.67
2023-01-11T04:00:24.863Z,2.70
2023-01-11T04:02:54.337Z,2.70
2023-01-11T04:05:22.266Z,2.75
2023-01-11T04:07:50.267Z,2.63
2023-01-11T04:10:18.194Z,2.69
2023-01-11T04:12:48.269Z,2.59
2023-01-11T04:15:17.454Z,2.23
2023-01-11T04:17:45.623Z,2.36
2023-01-11T04:20:14.112Z,2.48
2023-01-11T04:22:42.057Z,2.50
2023-01-11T04:25:10.328Z,2.39
2023-01-11T04:27:38.234Z,2.40
2023-01-11T04:30:06.680Z,2.57
2023-01-11T04:32:34.530Z,2.64
2023-01-11T04:35:02.576Z,2.75
2023-01-11T04:37:30.708Z,2.72
2023-01-11T04:39:58.684Z,2.78
2023-01-11T04:42:27.009Z,2.73
2023-01-11T04:44:55.015Z,2.79
2023-01-11T04:47:24.909Z,2.85
2023-01-11T04:49:53.215Z,2.84
2023-01-11T04:52:21.390Z,2.85
2023-01-11T04:54:52.729Z,2.87
2023-01-11T04:57:21.103Z,2.97
2023-01-11T04:59:49.404Z,2.83
2023-01-11T05:02:17.940Z,2.95
2023-01-11T05:04:45.917Z,2.81
2023-01-11T05:07:13.944Z,2.89
2023-01-11T05:09:41.817Z,2.98
2023-01-11T05:12:09.747Z,2.92
2023-01-11T05:14:37.787Z,2.63
2023-01-11T05:17:05.640Z,2.61
2023-01-11T05:19:33.646Z,2.79
2023-01-11T05:22:01.526Z,2.84
2023-01-11T05:24:29.543Z,2.82
2023-01-11T05:26:57.472Z,2.91
2023-01-11T05:29:25.488Z,2.91
2023-01-11T05:31:53.551Z,2.97
2023-01-11T05:34:21.593Z,2.93
2023-01-11T05:36:49.642Z,2.83
2023-01-11T05:39:17.551Z,2.81
2023-01-11T05:41:45.525Z,2.87
2023-01-11T05:44:34.764Z,2.48
2023-01-11T05:47:02.942Z,2.65
2023-01-11T05:49:31.113Z,2.80
2023-01-11T05:51:59.148Z,2.68
2023-01-11T05:54:27.098Z,2.53
2023-01-11T05:56:57.833Z,2.58
2023-01-11T05:59:27.069Z,2.51
2023-01-11T06:01:55.149Z,2.39
2023-01-11T06:04:23.078Z,2.50
2023-01-11T06:06:51.380Z,2.52
2023-01-11T06:09:19.258Z,2.58
2023-01-11T06:11:47.407Z,2.72
2023-01-11T06:14:15.277Z,2.86
2023-01-11T06:16:43.203Z,2.85
2023-01-11T06:19:11.701Z,2.97
2023-01-11T06:21:40.143Z,3.04
2023-01-11T06:24:08.092Z,3.11
2023-01-11T06:26:36.333Z,3.11
2023-01-11T06:29:04.311Z,3.05
2023-01-11T06:31:32.239Z,3.17
2023-01-11T06:34:00.103Z,3.24
2023-01-11T06:36:29.776Z,3.31
2023-01-11T06:38:58.155Z,3.32
2023-01-11T06:41:26.060Z,3.39
2023-01-11T06:43:54.403Z,3.34
2023-01-11T06:46:22.634Z,3.31
2023-01-11T06:48:50.714Z,3.42
2023-01-11T06:51:18.608Z,3.24
2023-01-11T06:53:46.797Z,2.98
2023-01-11T06:56:19.141Z,2.71
2023-01-11T06:58:48.515Z,2.81
2023-01-11T07:01:18.406Z,2.83
2023-01-11T07:03:46.883Z,2.93
2023-01-11T07:06:14.919Z,3.13
2023-01-11T07:08:42.943Z,3.27
2023-01-11T07:11:11.145Z,3.36
2023-01-11T07:13:39.130Z,3.54
2023-01-11T07:16:07.458Z,3.70
2023-01-11T07:18:35.432Z,3.76
2023-01-11T07:21:03.610Z,3.87
2023-01-11T07:23:31.569Z,3.96
2023-01-11T07:25:59.969Z,4.05
2023-01-11T07:28:28.691Z,4.06
2023-01-11T07:30:59.352Z,4.16
2023-01-11T07:33:28.260Z,4.30
2023-01-11T07:35:56.510Z,4.45
2023-01-11T07:38:24.507Z,4.57
2023-01-11T07:40:54.727Z,4.70
2023-01-11T07:43:23.686Z,4.83
2023-01-11T07:45:53.175Z,5.01
2023-01-11T07:48:26.619Z,5.30
2023-01-11T07:50:55.303Z,5.42
2023-01-11T07:53:26.179Z,5.80
2023-01-11T07:55:57.334Z,6.53
2023-01-11T07:58:25.374Z,7.31
2023-01-11T08:00:53.490Z,7.81
2023-01-11T08:03:21.798Z,8.16
2023-01-11T08:05:51.914Z,8.70
2023-01-11T08:08:20.286Z,8.83
2023-01-11T08:11:09.109Z,8.57
2023-01-11T08:13:55.929Z,8.64
2023-01-11T08:16:23.961Z,8.95
2023-01-11T08:18:53.179Z,8.38
2023-01-11T08:21:24.443Z,7.79
2023-01-11T08:23:59.498Z,7.59
2023-01-11T08:26:28.027Z,7.52
2023-01-11T08:28:56.114Z,7.24
2023-01-11T08:31:24.915Z,7.11
2023-01-11T08:33:53.230Z,7.34
2023-01-11T08:36:21.834Z,7.42
2023-01-11T08:38:49.928Z,7.59
2023-01-11T08:41:17.831Z,7.82
2023-01-11T08:43:46.262Z,7.92
2023-01-11T08:46:14.328Z,8.37
2023-01-11T08:48:43.059Z,8.15
2023-01-11T08:51:11.091Z,7.98
2023-01-11T08:53:39.023Z,8.15
2023-01-11T08:56:07.661Z,7.76
2023-01-11T08:58:36.235Z,7.82
2023-01-11T09:01:08.330Z,7.84
2023-01-11T09:03:36.567Z,8.00
2023-01-11T09:06:04.924Z,8.16
2023-01-11T09:08:32.844Z,8.06
2023-01-11T09:11:01.184Z,7.39
2023-01-11T09:13:29.155Z,7.16
2023-01-11T09:15:58.425Z,7.40
2023-01-11T09:18:27.369Z,7.30
2023-01-11T09:20:55.542Z,7.16
2023-01-11T09:23:23.555Z,7.24
2023-01-11T09:25:51.650Z,7.29
2023-01-11T09:28:19.893Z,7.32
2023-01-11T09:30:47.779Z,7.19
2023-01-11T09:33:15.868Z,7.22
2023-01-11T09:35:46.386Z,7.04
2023-01-11T09:38:14.626Z,7.09
2023-01-11T09:41:08.494Z,6.69
2023-01-11T09:43:46.052Z,6.72
2023-01-11T09:46:15.607Z,6.25
2023-01-11T09:48:48.579Z,6.16
2023-01-11T09:51:19.385Z,6.18
2023-01-11T09:53:54.108Z,6.21
2023-01-11T09:56:25.875Z,6.15
2023-01-11T09:59:19.521Z,5.90
2023-01-11T10:01:53.973Z,6.13
2023-01-11T10:05:11.002Z,5.95
2023-01-11T10:18:34.071Z,5.53
2023-01-11T10:18:41.723Z,5.61
2023-01-11T10:20:24.989Z,5.64
2023-01-11T10:23:00.955Z,5.71
2023-01-11T10:25:39.175Z,5.77
2023-01-11T10:28:17.655Z,5.94
2023-01-11T10:31:08.809Z,5.70
2023-01-11T10:33:48.427Z,5.75
2023-01-11T10:37:07.872Z,5.88
2023-01-11T10:40:24.120Z,5.76
2023-01-11T10:43:03.648Z,5.83
2023-01-11T10:45:43.651Z,5.90
2023-01-11T10:48:38.518Z,5.85
2023-01-11T10:51:42.320Z,5.98
2023-01-11T10:54:18.401Z,6.08
2023-01-11T10:57:08.154Z,5.98
2023-01-11T10:59:36.862Z,6.22
2023-01-11T11:02:39.972Z,6.39
2023-01-11T11:05:48.013Z,6.66
2023-01-11T11:08:36.350Z,7.10
2023-01-11T11:11:14.331Z,7.66
2023-01-11T11:13:49.867Z,9.40
2023-01-11T11:16:23.688Z,9.27
2023-01-11T11:18:58.729Z,8.93
2023-01-11T11:21:35.775Z,9.49
2023-01-11T11:24:27.825Z,9.74
2023-01-11T11:27:03.551Z,11.31
2023-01-11T11:29:31.938Z,12.48
2023-01-11T11:32:01.493Z,11.93
2023-01-11T11:34:31.192Z,11.02
2023-01-11T11:37:00.713Z,10.19
2023-01-11T11:39:31.316Z,9.54
2023-01-11T11:42:18.887Z,9.04
2023-01-11T11:45:10.784Z,8.71
2023-01-11T11:47:38.934Z,8.35
2023-01-11T11:50:31.828Z,7.88
2023-01-11T11:53:07.349Z,7.65
2023-01-11T11:55:35.926Z,7.35
2023-01-11T11:58:08.769Z,7.06
2023-01-11T12:00:45.637Z,7.01
2023-01-11T12:03:26.315Z,6.79
2023-01-11T12:06:01.304Z,6.64
2023-01-11T12:08:32.593Z,6.51
2023-01-11T12:11:07.231Z,6.53
2023-01-11T12:13:42.580Z,6.49
2023-01-11T12:16:22.262Z,6.45
2023-01-11T12:18:50.252Z,6.58
2023-01-11T12:21:27.179Z,6.52
2023-01-11T12:24:17.418Z,6.59
2023-01-11T12:27:00.456Z,6.47
2023-01-11T12:29:45.276Z,6.56
2023-01-11T12:32:22.316Z,6.39
2023-01-11T12:35:06.714Z,6.28
2023-01-11T12:37:53.047Z,6.48
2023-01-11T12:40:27.135Z,6.45
2023-01-11T12:43:19.879Z,6.46
2023-01-11T12:45:57.296Z,6.48
2023-01-11T12:48:45.887Z,6.16
2023-01-11T12:51:31.835Z,5.86
2023-01-11T12:54:09.822Z,5.58
2023-01-11T12:57:15.410Z,5.60
2023-01-11T13:00:08.613Z,5.67
2023-01-11T13:03:04.666Z,5.57
2023-01-11T13:06:17.273Z,5.60
2023-01-11T13:09:03.912Z,5.50
2023-01-11T13:11:39.100Z,5.52
2023-01-11T13:14:25.072Z,5.61
2023-01-11T13:17:05.192Z,5.61
2023-01-11T13:19:57.853Z,5.64
2023-01-11T13:22:32.462Z,5.60
2023-01-11T13:25:05.885Z,5.71
2023-01-11T13:27:34.318Z,5.57
2023-01-11T13:30:03.128Z,5.54
2023-01-11T13:32:37.513Z,5.42
2023-01-11T13:35:09.747Z,5.25
2023-01-11T13:37:43.524Z,5.22
2023-01-11T13:40:29.335Z,5.17
2023-01-11T13:43:20.179Z,5.28
2023-01-11T13:46:04.462Z,5.30
2023-01-11T13:48:40.760Z,5.31
2023-01-11T13:51:23.671Z,5.44
2023-01-11T13:54:16.911Z,5.43
2023-01-11T13:56:58.562Z,5.39
2023-01-11T13:59:44.492Z,5.55
2023-01-11T14:02:39.572Z,5.50
2023-01-11T14:05:18.425Z,5.51
2023-01-11T14:08:01.136Z,5.30
2023-01-11T14:11:01.460Z,5.42
2023-01-11T14:14:18.510Z,5.31
2023-01-11T14:16:55.624Z,5.34
2023-01-11T14:19:31.468Z,5.41
2023-01-11T14:22:17.730Z,5.38
2023-01-11T14:25:07.478Z,5.27
2023-01-11T14:27:55.325Z,5.34
2023-01-11T14:31:01.304Z,5.42
2023-01-11T14:33:56.622Z,5.47
2023-01-11T14:37:06.405Z,5.48
2023-01-11T14:40:00.900Z,5.42
2023-01-11T14:43:03.318Z,5.30
2023-01-11T14:45:44.735Z,5.26
2023-01-11T14:48:31.010Z,5.28
2023-01-11T14:51:46.662Z,5.19
2023-01-11T14:54:22.943Z,5.23
2023-01-11T14:56:54.769Z,5.22
2023-01-11T14:59:33.280Z,5.25
2023-01-11T15:02:04.271Z,5.14
2023-01-11T15:05:04.936Z,5.08
2023-01-11T15:07:33.561Z,5.20
2023-01-11T15:10:04.792Z,5.23
2023-01-11T15:12:37.589Z,5.21
2023-01-11T15:15:07.813Z,5.19
2023-01-11T15:17:54.260Z,5.23
2023-01-11T15:20:25.145Z,5.20
2023-01-11T15:23:01.894Z,5.26
2023-01-11T15:25:33.845Z,5.22
2023-01-11T15:28:31.137Z,5.27
2023-01-11T15:30:59.440Z,5.25
2023-01-11T15:33:28.578Z,5.26
2023-01-11T15:35:56.825Z,5.22
2023-01-11T15:38:49.796Z,5.19
2023-01-11T15:41:39.835Z,5.21
2023-01-11T15:44:41.308Z,5.21
2023-01-11T15:47:18.234Z,5.22
2023-01-11T15:50:13.301Z,5.10
2023-01-11T15:53:00.367Z,4.94
2023-01-11T15:55:41.818Z,5.02
2023-01-11T15:58:28.770Z,5.03
2023-01-11T16:01:12.752Z,4.99
2023-01-11T16:04:11.767Z,4.91
2023-01-11T16:06:58.359Z,4.93
2023-01-11T16:09:51.505Z,4.84
2023-01-11T16:12:48.989Z,4.90
2023-01-11T16:15:19.937Z,4.82
2023-01-11T16:17:48.518Z,4.54
2023-01-11T16:20:19.669Z,4.64
2023-01-11T16:22:58.470Z,4.69
2023-01-11T16:25:30.952Z,4.67
2023-01-11T16:28:00.677Z,4.52
2023-01-11T16:30:29.703Z,4.58
2023-01-11T16:33:31.986Z,4.59
2023-01-11T16:36:21.564Z,4.52
2023-01-11T16:39:07.452Z,4.36
2023-01-11T16:41:51.841Z,4.45
2023-01-11T16:44:45.930Z,4.33
2023-01-11T16:47:17.088Z,4.34
2023-01-11T16:49:49.580Z,4.23
2023-01-11T16:52:35.173Z,4.29
2023-01-11T16:55:30.455Z,4.17
2023-01-11T16:58:02.684Z,4.16
2023-01-11T17:00:36.491Z,4.09
2023-01-11T17:03:19.434Z,3.96
2023-01-11T17:06:08.296Z,3.97
2023-01-11T17:08:38.950Z,4.11
2023-01-11T17:11:44.904Z,4.08
2023-01-11T17:14:19.022Z,4.08
2023-01-11T17:16:54.370Z,4.14
2023-01-11T17:19:26.993Z,3.96
2023-01-11T17:22:03.707Z,3.99
2023-01-11T17:24:41.574Z,4.08
2023-01-11T17:27:20.204Z,4.04
2023-01-11T17:29:52.367Z,4.12
2023-01-11T17:32:41.718Z,4.09
2023-01-11T17:35:22.713Z,4.02
2023-01-11T17:37:55.100Z,4.03
2023-01-11T17:40:38.694Z,4.11
2023-01-11T17:43:36.584Z,4.15
2023-01-11T17:46:06.667Z,4.06
2023-01-11T17:48:35.590Z,3.99
2023-01-11T17:51:06.256Z,4.02
2023-01-11T17:53:36.455Z,3.94
2023-01-11T17:56:32.094Z,3.98
2023-01-11T17:59:19.482Z,3.93
2023-01-11T18:01:52.942Z,3.92
2023-01-11T18:04:23.550Z,3.85
2023-01-11T18:06:55.957Z,3.78
2023-01-11T18:09:30.207Z,3.71
2023-01-11T18:12:33.104Z,3.73
2023-01-11T18:15:05.052Z,3.73
2023-01-11T18:17:35.304Z,3.75
2023-01-11T18:20:29.790Z,3.80
2023-01-11T18:23:04.718Z,3.79
2023-01-11T18:25:35.391Z,3.76
2023-01-11T18:28:21.299Z,3.83
2023-01-11T18:30:54.183Z,3.70
2023-01-11T18:33:25.414Z,3.61
2023-01-11T18:35:58.488Z,3.52
2023-01-11T18:38:36.432Z,3.57
2023-01-11T18:41:32.418Z,3.47
2023-01-11T18:44:01.779Z,3.55
2023-01-11T18:46:30.216Z,3.70
2023-01-11T18:48:58.699Z,3.76
2023-01-11T18:51:35.742Z,3.75
2023-01-11T18:54:04.455Z,3.91
2023-01-11T18:56:32.902Z,3.90
2023-01-11T18:59:01.218Z,3.91
2023-01-11T19:01:33.193Z,3.83
2023-01-11T19:04:04.080Z,3.70
2023-01-11T19:06:32.901Z,3.77
2023-01-11T19:09:02.035Z,3.85
2023-01-11T19:11:31.275Z,3.81
2023-01-11T19:13:59.456Z,3.95
2023-01-11T19:16:27.900Z,3.83
2023-01-11T19:18:56.284Z,3.71
2023-01-11T19:21:25.018Z,3.74
2023-01-11T19:23:53.533Z,3.72
2023-01-11T19:26:22.107Z,3.65
2023-01-11T19:28:50.659Z,3.57
2023-01-11T19:31:19.839Z,3.64
2023-01-11T19:33:48.416Z,3.77
2023-01-11T19:36:17.057Z,3.72
2023-01-11T19:38:45.391Z,3.61
2023-01-11T19:41:17.264Z,3.66
2023-01-11T19:43:45.891Z,3.75
2023-01-11T19:46:25.864Z,3.76
2023-01-11T19:49:00.296Z,3.86
2023-01-11T19:51:28.811Z,3.86
2023-01-11T19:53:57.031Z,3.90
2023-01-11T19:56:25.383Z,3.88
2023-01-11T19:58:54.125Z,3.87
2023-01-11T20:01:22.749Z,3.83
2023-01-11T20:03:51.197Z,3.88
2023-01-11T20:06:19.617Z,3.93
2023-01-11T20:08:48.139Z,3.94
2023-01-11T20:11:16.739Z,3.96
2023-01-11T20:13:50.937Z,3.86
2023-01-11T20:16:22.734Z,3.84
2023-01-11T20:18:56.440Z,3.98
2023-01-11T20:21:27.882Z,3.80
2023-01-11T20:23:59.244Z,3.84
2023-01-11T20:26:30.871Z,3.88
2023-01-11T20:29:00.830Z,3.96
2023-01-11T20:31:32.547Z,3.90
2023-01-11T20:34:14.977Z,3.86
2023-01-11T20:36:44.634Z,3.76
2023-01-11T20:39:13.124Z,3.71
2023-01-11T20:41:47.609Z,3.68
2023-01-11T20:44:32.255Z,3.62
2023-01-11T20:47:01.852Z,3.57
2023-01-11T20:49:30.679Z,3.78
2023-01-11T20:51:59.195Z,3.56
2023-01-11T20:54:27.964Z,3.60
2023-01-11T20:57:01.494Z,3.60
2023-01-11T20:59:32.615Z,3.65
2023-01-11T21:02:00.909Z,3.64
2023-01-11T21:04:29.498Z,3.58
2023-01-11T21:06:58.099Z,3.55
2023-01-11T21:09:26.421Z,3.66
2023-01-11T21:11:54.937Z,3.63
2023-01-11T21:14:23.498Z,3.62
2023-01-11T21:16:55.303Z,3.65
2023-01-11T21:19:23.447Z,3.60
2023-01-11T21:21:54.054Z,3.50
2023-01-11T21:24:22.652Z,3.60
2023-01-11T21:29:33.771Z,3.46
2023-01-11T21:32:06.458Z,3.54
2023-01-11T21:34:34.631Z,3.54
2023-01-11T21:37:02.525Z,3.56
2023-01-11T21:39:31.781Z,3.70
2023-01-11T21:42:00.022Z,3.75
2023-01-11T21:44:35.144Z,3.68
2023-01-11T21:47:05.909Z,3.59
2023-01-11T21:49:35.159Z,3.81
2023-01-11T21:52:05.462Z,3.87
2023-01-11T21:54:33.397Z,3.68
2023-01-11T21:57:01.267Z,3.68
2023-01-11T21:59:30.293Z,3.61
2023-01-11T22:01:58.362Z,3.68
2023-01-11T22:04:26.335Z,3.68
2023-01-11T22:06:55.511Z,3.74
2023-01-11T22:09:28.519Z,3.61
2023-01-11T22:11:56.303Z,3.70
2023-01-11T22:14:24.335Z,3.72
2023-01-11T22:16:53.436Z,3.81
2023-01-11T22:19:21.318Z,3.75
2023-01-11T22:21:49.245Z,3.84
2023-01-11T22:24:18.098Z,3.75
2023-01-11T22:26:46.383Z,3.79
2023-01-11T22:29:17.138Z,3.79
2023-01-11T22:31:55.177Z,3.64
2023-01-11T22:34:23.724Z,3.61
2023-01-11T22:38:55.695Z,3.58
2023-01-11T22:41:28.010Z,3.58
2023-01-11T22:43:55.913Z,3.63
2023-01-11T22:46:26.326Z,3.59
2023-01-11T22:48:54.243Z,3.65
2023-01-11T22:51:25.144Z,3.63
2023-01-11T22:53:54.709Z,3.70
2023-01-11T22:56:25.901Z,3.67
2023-01-11T22:58:54.884Z,3.73
2023-01-11T23:01:26.608Z,3.72
2023-01-11T23:03:56.152Z,3.60
2023-01-11T23:06:28.890Z,3.73
2023-01-11T23:08:57.471Z,3.74
2023-01-11T23:11:56.177Z,3.75
2023-01-11T23:14:29.743Z,3.70
2023-01-11T23:17:19.350Z,3.71
2023-01-11T23:19:47.369Z,3.66
2023-01-11T23:22:16.010Z,3.76
2023-01-11T23:24:44.033Z,3.64
2023-01-11T23:27:12.417Z,3.60
2023-01-11T23:29:40.266Z,3.62
2023-01-11T23:32:08.659Z,3.56
2023-01-11T23:34:36.501Z,3.64
2023-01-11T23:37:05.375Z,3.61
2023-01-11T23:39:33.428Z,3.55
2023-01-11T23:42:20.203Z,3.52
2023-01-11T23:44:48.241Z,3.58
2023-01-11T23:47:22.404Z,3.61
2023-01-11T23:49:53.590Z,3.64
2023-01-11T23:52:25.109Z,3.71
2023-01-11T23:54:53.328Z,3.71
2023-01-11T23:57:22.253Z,3.72
2023-01-11T23:59:50.404Z,3.72
